sensor_id;sensor_type;location;lat;lon;timestamp;pressure;altitude;pressure_sealevel;temperature;humidity
62548;BME280;48602;45.192;5.722;2022-10-16T00:00:38;99234.06;;;16.21;83.11
62548;BME280;48602;45.192;5.722;2022-10-16T00:03:04;99231.41;;;16.21;83.01
62548;BME280;48602;45.192;5.722;2022-10-16T00:05:30;99235.84;;;16.21;83.04
62548;BME280;48602;45.192;5.722;2022-10-16T00:07:56;99236.81;;;16.20;83.05
62548;BME280;48602;45.192;5.722;2022-10-16T00:10:22;99243.06;;;16.19;83.42
62548;BME280;48602;45.192;5.722;2022-10-16T00:12:47;99247.44;;;16.20;83.34
62548;BME280;48602;45.192;5.722;2022-10-16T00:15:13;99252.75;;;16.20;83.53
62548;BME280;48602;45.192;5.722;2022-10-16T00:17:39;99240.41;;;16.19;83.25
62548;BME280;48602;45.192;5.722;2022-10-16T00:20:05;99247.53;;;16.18;83.27
62548;BME280;48602;45.192;5.722;2022-10-16T00:22:30;99253.81;;;16.17;83.46
62548;BME280;48602;45.192;5.722;2022-10-16T00:24:55;99245.91;;;16.16;83.52
62548;BME280;48602;45.192;5.722;2022-10-16T00:27:21;99239.06;;;16.12;83.60
62548;BME280;48602;45.192;5.722;2022-10-16T00:29:49;99250.72;;;16.09;84.05
62548;BME280;48602;45.192;5.722;2022-10-16T00:32:16;99254.56;;;16.05;83.57
62548;BME280;48602;45.192;5.722;2022-10-16T00:34:41;99248.47;;;16.03;84.05
62548;BME280;48602;45.192;5.722;2022-10-16T00:37:06;99257.56;;;15.99;83.82
62548;BME280;48602;45.192;5.722;2022-10-16T00:39:32;99254.13;;;15.97;83.90
62548;BME280;48602;45.192;5.722;2022-10-16T00:41:57;99260.59;;;15.93;83.86
62548;BME280;48602;45.192;5.722;2022-10-16T00:44:55;99255.38;;;15.91;83.73
62548;BME280;48602;45.192;5.722;2022-10-16T00:47:37;99256.50;;;15.87;84.37
62548;BME280;48602;45.192;5.722;2022-10-16T00:50:09;99265.59;;;15.83;84.27
62548;BME280;48602;45.192;5.722;2022-10-16T00:52:39;99269.28;;;15.81;84.35
62548;BME280;48602;45.192;5.722;2022-10-16T00:55:08;99273.00;;;15.78;84.51
62548;BME280;48602;45.192;5.722;2022-10-16T00:57:34;99274.88;;;15.76;84.59
62548;BME280;48602;45.192;5.722;2022-10-16T01:00:01;99278.50;;;15.75;84.39
62548;BME280;48602;45.192;5.722;2022-10-16T01:02:26;99280.41;;;15.73;84.69
62548;BME280;48602;45.192;5.722;2022-10-16T01:04:53;99285.97;;;15.68;84.74
62548;BME280;48602;45.192;5.722;2022-10-16T01:17:47;99283.47;;;15.50;85.34
62548;BME280;48602;45.192;5.722;2022-10-16T01:20:53;99281.94;;;15.46;85.63
62548;BME280;48602;45.192;5.722;2022-10-16T01:28:55;99287.09;;;15.33;85.81
62548;BME280;48602;45.192;5.722;2022-10-16T01:31:25;99289.94;;;15.30;86.13
62548;BME280;48602;45.192;5.722;2022-10-16T01:34:15;99288.31;;;15.27;86.20
62548;BME280;48602;45.192;5.722;2022-10-16T01:36:46;99293.81;;;15.24;86.08
62548;BME280;48602;45.192;5.722;2022-10-16T01:39:15;99299.28;;;15.21;86.86
62548;BME280;48602;45.192;5.722;2022-10-16T01:41:49;99296.81;;;15.18;86.77
62548;BME280;48602;45.192;5.722;2022-10-16T01:44:25;99303.91;;;15.18;87.17
62548;BME280;48602;45.192;5.722;2022-10-16T01:46:53;99311.19;;;15.14;87.46
62548;BME280;48602;45.192;5.722;2022-10-16T01:49:21;99308.03;;;15.08;88.51
62548;BME280;48602;45.192;5.722;2022-10-16T01:51:52;99311.97;;;15.00;87.47
62548;BME280;48602;45.192;5.722;2022-10-16T01:54:20;99311.34;;;14.95;89.06
62548;BME280;48602;45.192;5.722;2022-10-16T01:56:47;99308.00;;;14.92;88.85
62548;BME280;48602;45.192;5.722;2022-10-16T01:59:18;99311.69;;;14.89;88.22
62548;BME280;48602;45.192;5.722;2022-10-16T02:01:52;99313.56;;;14.87;89.04
62548;BME280;48602;45.192;5.722;2022-10-16T02:04:36;99316.22;;;14.87;89.15
62548;BME280;48602;45.192;5.722;2022-10-16T02:07:02;99315.38;;;14.87;89.42
62548;BME280;48602;45.192;5.722;2022-10-16T02:09:29;99305.78;;;14.84;89.03
62548;BME280;48602;45.192;5.722;2022-10-16T02:11:57;99307.41;;;14.87;89.40
62548;BME280;48602;45.192;5.722;2022-10-16T02:14:25;99310.84;;;14.89;88.98
62548;BME280;48602;45.192;5.722;2022-10-16T02:16:51;99310.75;;;14.90;89.47
62548;BME280;48602;45.192;5.722;2022-10-16T02:19:17;99310.66;;;14.92;89.32
62548;BME280;48602;45.192;5.722;2022-10-16T02:21:57;99310.47;;;14.95;89.34
62548;BME280;48602;45.192;5.722;2022-10-16T02:27:07;99314.84;;;14.96;89.12
62548;BME280;48602;45.192;5.722;2022-10-16T02:29:40;99316.56;;;14.97;89.30
62548;BME280;48602;45.192;5.722;2022-10-16T02:32:10;99321.72;;;15.00;89.29
62548;BME280;48602;45.192;5.722;2022-10-16T02:34:39;99321.97;;;14.95;89.66
62548;BME280;48602;45.192;5.722;2022-10-16T02:37:06;99320.59;;;14.88;89.87
62548;BME280;48602;45.192;5.722;2022-10-16T02:39:33;99325.44;;;14.80;89.98
62548;BME280;48602;45.192;5.722;2022-10-16T02:41:59;99320.66;;;14.71;89.21
62548;BME280;48602;45.192;5.722;2022-10-16T02:44:24;99320.03;;;14.66;90.04
62548;BME280;48602;45.192;5.722;2022-10-16T02:46:49;99323.00;;;14.60;90.21
62548;BME280;48602;45.192;5.722;2022-10-16T02:49:15;99320.53;;;14.57;89.92
62548;BME280;48602;45.192;5.722;2022-10-16T02:51:40;99326.78;;;14.56;90.54
62548;BME280;48602;45.192;5.722;2022-10-16T02:54:06;99317.88;;;14.57;90.58
62548;BME280;48602;45.192;5.722;2022-10-16T02:56:31;99319.56;;;14.58;90.88
62548;BME280;48602;45.192;5.722;2022-10-16T02:58:57;99323.00;;;14.60;90.34
62548;BME280;48602;45.192;5.722;2022-10-16T03:01:23;99318.56;;;14.60;90.30
62548;BME280;48602;45.192;5.722;2022-10-16T03:03:49;99325.56;;;14.61;90.77
62548;BME280;48602;45.192;5.722;2022-10-16T03:06:14;99323.69;;;14.63;90.50
62548;BME280;48602;45.192;5.722;2022-10-16T03:08:39;99322.84;;;14.63;90.50
62548;BME280;48602;45.192;5.722;2022-10-16T03:11:05;99324.63;;;14.62;90.63
62548;BME280;48602;45.192;5.722;2022-10-16T03:13:30;99326.28;;;14.65;90.86
62548;BME280;48602;45.192;5.722;2022-10-16T03:15:56;99323.53;;;14.66;90.53
62548;BME280;48602;45.192;5.722;2022-10-16T03:18:21;99325.19;;;14.69;90.81
62548;BME280;48602;45.192;5.722;2022-10-16T03:20:46;99319.78;;;14.71;90.70
62548;BME280;48602;45.192;5.722;2022-10-16T03:23:12;99322.38;;;14.72;90.40
62548;BME280;48602;45.192;5.722;2022-10-16T03:25:37;99323.16;;;14.74;89.99
62548;BME280;48602;45.192;5.722;2022-10-16T03:28:03;99322.94;;;14.77;89.92
62548;BME280;48602;45.192;5.722;2022-10-16T03:30:28;99322.94;;;14.77;90.01
62548;BME280;48602;45.192;5.722;2022-10-16T03:32:54;99329.91;;;14.80;89.75
62548;BME280;48602;45.192;5.722;2022-10-16T03:35:20;99329.91;;;14.80;89.48
62548;BME280;48602;45.192;5.722;2022-10-16T03:37:46;99321.94;;;14.80;89.85
62548;BME280;48602;45.192;5.722;2022-10-16T03:40:11;99322.78;;;14.80;89.38
62548;BME280;48602;45.192;5.722;2022-10-16T03:42:37;99327.16;;;14.81;89.32
62548;BME280;48602;45.192;5.722;2022-10-16T03:45:02;99325.44;;;14.80;89.24
62548;BME280;48602;45.192;5.722;2022-10-16T03:47:28;99328.09;;;14.80;88.98
62548;BME280;48602;45.192;5.722;2022-10-16T03:49:53;99327.25;;;14.80;89.18
62548;BME280;48602;45.192;5.722;2022-10-16T03:52:19;99324.59;;;14.80;88.92
62548;BME280;48602;45.192;5.722;2022-10-16T03:54:44;99328.09;;;14.80;88.99
62548;BME280;48602;45.192;5.722;2022-10-16T03:57:09;99328.97;;;14.81;89.22
62548;BME280;48602;45.192;5.722;2022-10-16T03:59:35;99322.78;;;14.80;89.14
62548;BME280;48602;45.192;5.722;2022-10-16T04:02:00;99324.50;;;14.81;88.93
62548;BME280;48602;45.192;5.722;2022-10-16T04:04:25;99324.44;;;14.83;89.18
62548;BME280;48602;45.192;5.722;2022-10-16T04:06:51;99321.78;;;14.83;89.06
62548;BME280;48602;45.192;5.722;2022-10-16T04:09:16;99323.56;;;14.82;88.84
62548;BME280;48602;45.192;5.722;2022-10-16T04:11:42;99320.06;;;14.82;88.75
62548;BME280;48602;45.192;5.722;2022-10-16T04:14:08;99321.00;;;14.81;88.93
62548;BME280;48602;45.192;5.722;2022-10-16T04:16:33;99321.94;;;14.80;88.56
62548;BME280;48602;45.192;5.722;2022-10-16T04:18:58;99324.66;;;14.78;88.56
62548;BME280;48602;45.192;5.722;2022-10-16T04:21:24;99320.38;;;14.76;88.60
62548;BME280;48602;45.192;5.722;2022-10-16T04:23:49;99324.94;;;14.74;88.44
62548;BME280;48602;45.192;5.722;2022-10-16T04:26:15;99324.16;;;14.72;88.90
62548;BME280;48602;45.192;5.722;2022-10-16T04:28:40;99324.25;;;14.70;88.52
62548;BME280;48602;45.192;5.722;2022-10-16T04:31:06;99321.66;;;14.69;88.48
62548;BME280;48602;45.192;5.722;2022-10-16T04:33:32;99319.09;;;14.67;88.15
62548;BME280;48602;45.192;5.722;2022-10-16T04:35:59;99328.94;;;14.65;88.75
62548;BME280;48602;45.192;5.722;2022-10-16T04:38:25;99329.94;;;14.62;89.09
62548;BME280;48602;45.192;5.722;2022-10-16T04:40:50;99337.97;;;14.61;88.69
62548;BME280;48602;45.192;5.722;2022-10-16T04:43:16;99333.63;;;14.60;88.73
62548;BME280;48602;45.192;5.722;2022-10-16T04:45:41;99331.91;;;14.59;88.77
62548;BME280;48602;45.192;5.722;2022-10-16T04:48:07;99337.31;;;14.57;89.07
62548;BME280;48602;45.192;5.722;2022-10-16T04:50:32;99346.28;;;14.55;88.90
62548;BME280;48602;45.192;5.722;2022-10-16T04:52:58;99343.72;;;14.53;89.00
62548;BME280;48602;45.192;5.722;2022-10-16T04:55:23;99344.56;;;14.54;89.20
62548;BME280;48602;45.192;5.722;2022-10-16T04:57:48;99346.44;;;14.52;88.96
62548;BME280;48602;45.192;5.722;2022-10-16T05:00:14;99350.97;;;14.50;89.27
62548;BME280;48602;45.192;5.722;2022-10-16T05:02:40;99349.31;;;14.47;89.52
62548;BME280;48602;45.192;5.722;2022-10-16T05:05:05;99347.75;;;14.43;89.68
62548;BME280;48602;45.192;5.722;2022-10-16T05:07:31;99344.25;;;14.43;89.41
62548;BME280;48602;45.192;5.722;2022-10-16T05:09:56;99338.94;;;14.43;89.43
62548;BME280;48602;45.192;5.722;2022-10-16T05:12:21;99345.97;;;14.44;89.35
62548;BME280;48602;45.192;5.722;2022-10-16T05:14:47;99342.47;;;14.43;89.53
62548;BME280;48602;45.192;5.722;2022-10-16T05:17:12;99344.25;;;14.43;89.05
62548;BME280;48602;45.192;5.722;2022-10-16T05:19:38;99343.41;;;14.42;89.43
62548;BME280;48602;45.192;5.722;2022-10-16T05:22:03;99341.69;;;14.41;89.17
62548;BME280;48602;45.192;5.722;2022-10-16T05:24:28;99346.19;;;14.39;89.39
62548;BME280;48602;45.192;5.722;2022-10-16T05:26:54;99352.44;;;14.38;89.26
62548;BME280;48602;45.192;5.722;2022-10-16T05:29:19;99362.19;;;14.38;89.43
62548;BME280;48602;45.192;5.722;2022-10-16T05:31:45;99350.81;;;14.36;89.15
62548;BME280;48602;45.192;5.722;2022-10-16T05:34:10;99357.03;;;14.35;89.46
62548;BME280;48602;45.192;5.722;2022-10-16T05:36:35;99364.91;;;14.36;89.31
62548;BME280;48602;45.192;5.722;2022-10-16T05:39:01;99368.75;;;14.30;89.59
62548;BME280;48602;45.192;5.722;2022-10-16T05:41:26;99367.25;;;14.25;89.65
62548;BME280;48602;45.192;5.722;2022-10-16T05:43:52;99371.78;;;14.23;89.77
62548;BME280;48602;45.192;5.722;2022-10-16T05:46:18;99362.97;;;14.22;89.88
62548;BME280;48602;45.192;5.722;2022-10-16T05:48:44;99367.34;;;14.23;89.76
62548;BME280;48602;45.192;5.722;2022-10-16T05:51:11;99364.69;;;14.23;89.97
62548;BME280;48602;45.192;5.722;2022-10-16T05:53:38;99374.34;;;14.24;89.95
62548;BME280;48602;45.192;5.722;2022-10-16T05:56:05;99377.84;;;14.25;89.92
62548;BME280;48602;45.192;5.722;2022-10-16T05:58:33;99369.91;;;14.25;90.06
62548;BME280;48602;45.192;5.722;2022-10-16T06:01:06;99369.91;;;14.25;89.99
62548;BME280;48602;45.192;5.722;2022-10-16T06:03:32;99374.34;;;14.24;89.62
62548;BME280;48602;45.192;5.722;2022-10-16T06:05:58;99376.16;;;14.24;89.35
62548;BME280;48602;45.192;5.722;2022-10-16T06:08:23;99379.66;;;14.24;89.53
62548;BME280;48602;45.192;5.722;2022-10-16T06:11:00;99396.53;;;14.23;89.24
62548;BME280;48602;45.192;5.722;2022-10-16T06:13:25;99395.75;;;14.21;89.40
62548;BME280;48602;45.192;5.722;2022-10-16T06:15:51;99396.59;;;14.22;89.31
62548;BME280;48602;45.192;5.722;2022-10-16T06:18:16;99405.50;;;14.21;89.20
62548;BME280;48602;45.192;5.722;2022-10-16T06:20:41;99398.38;;;14.21;89.10
62548;BME280;48602;45.192;5.722;2022-10-16T06:23:07;99406.34;;;14.21;89.32
62548;BME280;48602;45.192;5.722;2022-10-16T06:25:32;99409.00;;;14.21;89.17
62548;BME280;48602;45.192;5.722;2022-10-16T06:27:58;99409.84;;;14.22;89.25
62548;BME280;48602;45.192;5.722;2022-10-16T06:30:23;99414.22;;;14.23;88.61
62548;BME280;48602;45.192;5.722;2022-10-16T06:32:49;99418.59;;;14.24;88.85
62548;BME280;48602;45.192;5.722;2022-10-16T06:35:14;99414.97;;;14.25;88.79
62548;BME280;48602;45.192;5.722;2022-10-16T06:37:39;99418.59;;;14.24;89.05
62548;BME280;48602;45.192;5.722;2022-10-16T06:40:05;99420.22;;;14.26;88.80
62548;BME280;48602;45.192;5.722;2022-10-16T06:42:31;99425.44;;;14.28;88.63
62548;BME280;48602;45.192;5.722;2022-10-16T06:44:56;99425.28;;;14.31;88.57
62548;BME280;48602;45.192;5.722;2022-10-16T06:47:22;99421.69;;;14.32;88.53
62548;BME280;48602;45.192;5.722;2022-10-16T06:49:47;99423.28;;;14.36;88.48
62548;BME280;48602;45.192;5.722;2022-10-16T06:52:12;99433.81;;;14.38;88.19
62548;BME280;48602;45.192;5.722;2022-10-16T06:54:38;99429.28;;;14.40;88.12
62548;BME280;48602;45.192;5.722;2022-10-16T06:57:03;99435.31;;;14.43;88.06
62548;BME280;48602;45.192;5.722;2022-10-16T06:59:29;99438.66;;;14.47;88.03
62548;BME280;48602;45.192;5.722;2022-10-16T07:01:54;99442.88;;;14.51;87.56
62548;BME280;48602;45.192;5.722;2022-10-16T07:04:19;99433.91;;;14.53;87.42
62548;BME280;48602;45.192;5.722;2022-10-16T07:06:45;99442.66;;;14.55;87.54
62548;BME280;48602;45.192;5.722;2022-10-16T07:09:10;99431.00;;;14.58;87.08
62548;BME280;48602;45.192;5.722;2022-10-16T07:11:38;99438.81;;;14.61;87.01
62548;BME280;48602;45.192;5.722;2022-10-16T07:14:04;99442.25;;;14.63;87.11
62548;BME280;48602;45.192;5.722;2022-10-16T07:16:31;99441.88;;;14.71;87.04
62548;BME280;48602;45.192;5.722;2022-10-16T07:18:59;99443.31;;;14.76;86.71
62548;BME280;48602;45.192;5.722;2022-10-16T07:21:27;99459.03;;;14.81;86.37
62548;BME280;48602;45.192;5.722;2022-10-16T07:23:55;99458.88;;;14.84;86.41
62548;BME280;48602;45.192;5.722;2022-10-16T07:26:22;99458.72;;;14.87;86.34
62548;BME280;48602;45.192;5.722;2022-10-16T07:28:47;99454.09;;;14.90;85.97
62548;BME280;48602;45.192;5.722;2022-10-16T07:31:14;99457.44;;;14.94;85.60
62548;BME280;48602;45.192;5.722;2022-10-16T07:33:41;99454.63;;;14.97;85.50
62548;BME280;48602;45.192;5.722;2022-10-16T07:36:08;99459.72;;;15.01;85.18
62548;BME280;48602;45.192;5.722;2022-10-16T07:38:34;99466.56;;;15.06;84.73
62548;BME280;48602;45.192;5.722;2022-10-16T07:41:02;99466.38;;;15.09;84.56
62548;BME280;48602;45.192;5.722;2022-10-16T07:43:28;99465.28;;;15.13;84.20
62548;BME280;48602;45.192;5.722;2022-10-16T07:45:54;99473.97;;;15.16;83.97
62548;BME280;48602;45.192;5.722;2022-10-16T07:48:20;99476.31;;;15.22;83.80
62548;BME280;48602;45.192;5.722;2022-10-16T07:50:47;99486.66;;;15.27;83.48
62548;BME280;48602;45.192;5.722;2022-10-16T07:53:13;99479.22;;;15.33;83.08
62548;BME280;48602;45.192;5.722;2022-10-16T07:55:39;99472.75;;;15.39;82.60
62548;BME280;48602;45.192;5.722;2022-10-16T07:58:05;99471.53;;;15.45;82.35
62548;BME280;48602;45.192;5.722;2022-10-16T08:00:30;99464.25;;;15.48;81.73
62548;BME280;48602;45.192;5.722;2022-10-16T08:02:57;99471.91;;;15.54;82.07
62548;BME280;48602;45.192;5.722;2022-10-16T08:05:26;99476.97;;;15.59;80.90
62548;BME280;48602;45.192;5.722;2022-10-16T08:07:52;99482.81;;;15.65;80.84
62548;BME280;48602;45.192;5.722;2022-10-16T08:10:19;99480.69;;;15.72;80.35
62548;BME280;48602;45.192;5.722;2022-10-16T08:12:44;99483.84;;;15.79;80.03
62548;BME280;48602;45.192;5.722;2022-10-16T08:15:10;99487.03;;;15.85;79.75
62548;BME280;48602;45.192;5.722;2022-10-16T08:17:35;99477.69;;;15.94;79.03
62548;BME280;48602;45.192;5.722;2022-10-16T08:20:02;99475.47;;;16.02;78.35
62548;BME280;48602;45.192;5.722;2022-10-16T08:22:27;99467.03;;;16.10;78.08
62548;BME280;48602;45.192;5.722;2022-10-16T08:24:53;99463.94;;;16.17;77.60
62548;BME280;48602;45.192;5.722;2022-10-16T08:27:18;99470.53;;;16.26;77.44
62548;BME280;48602;45.192;5.722;2022-10-16T08:29:44;99473.63;;;16.34;77.58
62548;BME280;48602;45.192;5.722;2022-10-16T08:32:09;99467.56;;;16.46;77.65
62548;BME280;48602;45.192;5.722;2022-10-16T08:34:34;99474.00;;;16.58;77.21
62548;BME280;48602;45.192;5.722;2022-10-16T08:37:00;99474.25;;;16.69;76.35
62548;BME280;48602;45.192;5.722;2022-10-16T08:39:25;99472.81;;;16.78;75.98
62548;BME280;48602;45.192;5.722;2022-10-16T08:44:41;99474.38;;;16.96;75.45
62548;BME280;48602;45.192;5.722;2022-10-16T08:49:59;99469.84;;;17.12;75.27
62548;BME280;48602;45.192;5.722;2022-10-16T08:52:30;99476.34;;;17.22;75.16
62548;BME280;48602;45.192;5.722;2022-10-16T08:54:57;99473.00;;;17.33;74.78
62548;BME280;48602;45.192;5.722;2022-10-16T08:57:25;99478.72;;;17.41;74.67
62548;BME280;48602;45.192;5.722;2022-10-16T08:59:52;99469.19;;;17.51;73.85
62548;BME280;48602;45.192;5.722;2022-10-16T09:02:32;99473.81;;;17.62;73.55
62548;BME280;48602;45.192;5.722;2022-10-16T09:08:17;99479.63;;;17.83;72.66
62548;BME280;48602;45.192;5.722;2022-10-16T09:11:03;99478.84;;;17.95;72.51
62548;BME280;48602;45.192;5.722;2022-10-16T09:16:36;99477.47;;;18.16;72.11
62548;BME280;48602;45.192;5.722;2022-10-16T09:19:25;99479.75;;;18.22;72.32
62548;BME280;48602;45.192;5.722;2022-10-16T09:21:54;99477.59;;;18.27;71.54
62548;BME280;48602;45.192;5.722;2022-10-16T09:24:23;99474.53;;;18.33;70.90
62548;BME280;48602;45.192;5.722;2022-10-16T09:26:49;99495.69;;;18.36;71.87
62548;BME280;48602;45.192;5.722;2022-10-16T09:29:17;99498.94;;;18.41;72.21
62548;BME280;48602;45.192;5.722;2022-10-16T09:31:45;99488.25;;;18.41;69.11
62548;BME280;48602;45.192;5.722;2022-10-16T09:34:34;99494.31;;;18.43;68.79
62548;BME280;48602;45.192;5.722;2022-10-16T09:37:03;99488.03;;;18.44;66.10
62548;BME280;48602;45.192;5.722;2022-10-16T09:39:30;99491.53;;;18.45;68.17
62548;BME280;48602;45.192;5.722;2022-10-16T09:41:56;99484.28;;;18.47;68.00
62548;BME280;48602;45.192;5.722;2022-10-16T09:46:47;99486.19;;;18.59;68.34
62548;BME280;48602;45.192;5.722;2022-10-16T09:49:26;99484.81;;;18.66;67.97
62548;BME280;48602;45.192;5.722;2022-10-16T09:52:05;99487.84;;;18.74;68.45
62548;BME280;48602;45.192;5.722;2022-10-16T09:54:36;99487.09;;;18.85;68.66
62548;BME280;48602;45.192;5.722;2022-10-16T09:57:06;99479.28;;;18.95;67.02
62548;BME280;48602;45.192;5.722;2022-10-16T09:59:32;99481.44;;;19.02;67.57
62548;BME280;48602;45.192;5.722;2022-10-16T10:02:02;99481.91;;;19.09;67.59
62548;BME280;48602;45.192;5.722;2022-10-16T10:04:38;99476.00;;;19.16;67.35
62548;BME280;48602;45.192;5.722;2022-10-16T10:07:17;99473.41;;;19.28;66.79
62548;BME280;48602;45.192;5.722;2022-10-16T10:09:44;99472.78;;;19.37;66.47
62548;BME280;48602;45.192;5.722;2022-10-16T10:12:31;99468.59;;;19.45;65.66
62548;BME280;48602;45.192;5.722;2022-10-16T10:15:07;99460.06;;;19.53;65.16
62548;BME280;48602;45.192;5.722;2022-10-16T10:17:46;99457.69;;;19.61;65.12
62548;BME280;48602;45.192;5.722;2022-10-16T10:20:35;99461.66;;;19.68;66.22
62548;BME280;48602;45.192;5.722;2022-10-16T10:23:24;99454.91;;;19.75;65.47
62548;BME280;48602;45.192;5.722;2022-10-16T10:25:56;99445.56;;;19.81;65.43
62548;BME280;48602;45.192;5.722;2022-10-16T10:33:47;99447.09;;;20.09;65.38
62548;BME280;48602;45.192;5.722;2022-10-16T10:39:01;99442.41;;;20.24;65.20
62548;BME280;48602;45.192;5.722;2022-10-16T10:46:42;99434.25;;;20.49;64.54
62548;BME280;48602;45.192;5.722;2022-10-16T10:57:02;99424.03;;;20.89;64.97
62548;BME280;48602;45.192;5.722;2022-10-16T10:59:52;99419.75;;;20.98;64.11
62548;BME280;48602;45.192;5.722;2022-10-16T11:02:37;99416.38;;;21.07;62.99
62548;BME280;48602;45.192;5.722;2022-10-16T11:15:48;99383.44;;;21.72;60.44
62548;BME280;48602;45.192;5.722;2022-10-16T11:21:21;99377.16;;;22.05;59.20
62548;BME280;48602;45.192;5.722;2022-10-16T11:23:59;99377.06;;;22.27;57.75
62548;BME280;48602;45.192;5.722;2022-10-16T11:26:32;99369.00;;;22.48;57.15
62548;BME280;48602;45.192;5.722;2022-10-16T11:29:00;99373.94;;;22.63;56.60
62548;BME280;48602;45.192;5.722;2022-10-16T11:31:36;99372.78;;;22.77;55.67
62548;BME280;48602;45.192;5.722;2022-10-16T11:36:38;99372.09;;;23.06;55.58
62548;BME280;48602;45.192;5.722;2022-10-16T11:39:21;99373.47;;;23.30;54.27
62548;BME280;48602;45.192;5.722;2022-10-16T11:41:52;99365.34;;;23.51;53.08
62548;BME280;48602;45.192;5.722;2022-10-16T11:49:45;99360.75;;;24.01;51.45
62548;BME280;48602;45.192;5.722;2022-10-16T11:52:19;99364.34;;;24.12;53.05
62548;BME280;48602;45.192;5.722;2022-10-16T11:54:59;99353.88;;;24.28;52.05
62548;BME280;48602;45.192;5.722;2022-10-16T11:57:42;99348.88;;;24.43;49.46
62548;BME280;48602;45.192;5.722;2022-10-16T12:00:23;99353.81;;;24.47;50.36
62548;BME280;48602;45.192;5.722;2022-10-16T12:03:17;99359.09;;;24.58;49.20
62548;BME280;48602;45.192;5.722;2022-10-16T12:08:36;99358.38;;;24.56;49.19
62548;BME280;48602;45.192;5.722;2022-10-16T12:11:54;99355.41;;;24.59;48.84
62548;BME280;48602;45.192;5.722;2022-10-16T12:16:56;99356.91;;;24.72;47.36
62548;BME280;48602;45.192;5.722;2022-10-16T12:19:25;99360.56;;;24.80;46.82
62548;BME280;48602;45.192;5.722;2022-10-16T12:21:52;99360.56;;;24.90;46.66
62548;BME280;48602;45.192;5.722;2022-10-16T12:24:37;99351.09;;;24.95;46.78
62548;BME280;48602;45.192;5.722;2022-10-16T12:27:06;99354.72;;;25.04;46.73
62548;BME280;48602;45.192;5.722;2022-10-16T12:32:00;99358.56;;;25.11;45.92
62548;BME280;48602;45.192;5.722;2022-10-16T12:34:28;99354.69;;;25.14;45.25
62548;BME280;48602;45.192;5.722;2022-10-16T12:36:55;99335.50;;;25.17;45.47
62548;BME280;48602;45.192;5.722;2022-10-16T12:39:32;99341.16;;;25.23;44.43
62548;BME280;48602;45.192;5.722;2022-10-16T12:42:03;99336.69;;;25.32;44.37
62548;BME280;48602;45.192;5.722;2022-10-16T12:44:33;99336.41;;;25.35;44.25
62548;BME280;48602;45.192;5.722;2022-10-16T12:46:58;99336.13;;;25.38;44.30
62548;BME280;48602;45.192;5.722;2022-10-16T12:49:36;99334.25;;;25.38;44.14
62548;BME280;48602;45.192;5.722;2022-10-16T12:52:04;99322.47;;;25.39;43.74
62548;BME280;48602;45.192;5.722;2022-10-16T12:54:30;99327.94;;;25.48;43.29
62548;BME280;48602;45.192;5.722;2022-10-16T12:57:12;99328.06;;;25.56;42.99
62548;BME280;48602;45.192;5.722;2022-10-16T13:05:18;99335.63;;;25.80;43.28
62548;BME280;48602;45.192;5.722;2022-10-16T13:08:00;99336.53;;;25.88;41.77
62548;BME280;48602;45.192;5.722;2022-10-16T13:10:31;99336.53;;;25.88;41.42
62548;BME280;48602;45.192;5.722;2022-10-16T13:18:54;99330.59;;;25.85;41.49
62548;BME280;48602;45.192;5.722;2022-10-16T13:26:52;99323.72;;;25.90;40.47
62548;BME280;48602;45.192;5.722;2022-10-16T13:29:20;99329.53;;;25.95;40.57
62548;BME280;48602;45.192;5.722;2022-10-16T13:31:46;99327.69;;;25.96;41.32
62548;BME280;48602;45.192;5.722;2022-10-16T13:34:16;99338.16;;;25.99;42.02
62548;BME280;48602;45.192;5.722;2022-10-16T13:36:49;99327.88;;;26.02;39.28
62548;BME280;48602;45.192;5.722;2022-10-16T13:39:28;99323.88;;;26.06;40.93
62548;BME280;48602;45.192;5.722;2022-10-16T13:42:13;99320.72;;;26.11;40.17
62548;BME280;48602;45.192;5.722;2022-10-16T13:44:43;99315.31;;;26.11;39.72
62548;BME280;48602;45.192;5.722;2022-10-16T13:47:18;99327.81;;;26.12;39.66
62548;BME280;48602;45.192;5.722;2022-10-16T13:49:44;99322.28;;;26.14;39.24
62548;BME280;48602;45.192;5.722;2022-10-16T13:52:20;99317.53;;;26.16;39.47
62548;BME280;48602;45.192;5.722;2022-10-16T13:54:46;99331.59;;;26.19;39.68
62548;BME280;48602;45.192;5.722;2022-10-16T13:57:16;99325.88;;;26.22;38.97
62548;BME280;48602;45.192;5.722;2022-10-16T13:59:42;99328.44;;;26.24;39.26
62548;BME280;48602;45.192;5.722;2022-10-16T14:02:33;99321.31;;;26.23;38.42
62548;BME280;48602;45.192;5.722;2022-10-16T14:05:04;99320.94;;;26.18;38.97
62548;BME280;48602;45.192;5.722;2022-10-16T14:07:34;99333.84;;;26.24;39.67
62548;BME280;48602;45.192;5.722;2022-10-16T14:10:18;99323.88;;;26.42;38.80
62548;BME280;48602;45.192;5.722;2022-10-16T14:12:45;99321.34;;;26.66;38.52
62548;BME280;48602;45.192;5.722;2022-10-16T14:15:19;99331.94;;;26.86;37.94
62548;BME280;48602;45.192;5.722;2022-10-16T14:17:48;99320.06;;;26.96;36.32
62548;BME280;48602;45.192;5.722;2022-10-16T14:20:15;99325.06;;;26.91;36.88
62548;BME280;48602;45.192;5.722;2022-10-16T14:22:42;99320.94;;;26.79;37.52
62548;BME280;48602;45.192;5.722;2022-10-16T14:30:34;99329.03;;;26.53;38.13
62548;BME280;48602;45.192;5.722;2022-10-16T14:33:04;99333.75;;;26.51;37.93
62548;BME280;48602;45.192;5.722;2022-10-16T14:35:37;99338.63;;;26.48;38.09
62548;BME280;48602;45.192;5.722;2022-10-16T14:38:05;99341.66;;;26.45;37.67
62548;BME280;48602;45.192;5.722;2022-10-16T14:40:35;99342.66;;;26.44;37.84
62548;BME280;48602;45.192;5.722;2022-10-16T14:43:02;99333.84;;;26.41;38.23
62548;BME280;48602;45.192;5.722;2022-10-16T14:45:31;99342.56;;;26.35;38.11
62548;BME280;48602;45.192;5.722;2022-10-16T14:48:00;99335.63;;;26.33;38.00
62548;BME280;48602;45.192;5.722;2022-10-16T14:50:26;99337.66;;;26.31;38.32
62548;BME280;48602;45.192;5.722;2022-10-16T14:52:52;99347.91;;;26.27;38.03
62548;BME280;48602;45.192;5.722;2022-10-16T14:55:18;99347.03;;;26.27;38.33